»·PEaware :: AAL521 KLAS-KPHX

AAL521 :: KLAS-KPHX

FLIGHT INFORMATION

Flight Status: Arrived
Operator:
American Airlines
More flights by this operator :: More flights under this callsign
Pilot: Isaac R. (8401)
Aircraft: AIRBUS A321
(A321)
More flights by this aircraft type
Origin: KLAS McCarran Intl
United States
Destination: KPHX Phoenix Sky Harbor Intl
United States
More flights between these airports :: More routes between these airports
Route: COWBY8 COWBY TENTS BRUSR1
File this flight plan on PilotEdge
Remarks:
Altitude:
(Current/Filed)
27,000ft
Speed:
(Current/Filed)
185kts
Departed: 27-Oct-19 07:35 PM
Arrived: 27-Oct-19 08:21 PM
Distance/Time
Traveled:
222nm/0:46
Distance/Time
To Go:
Arrived

Flight Plot

Page will automatically refresh every two minutes.

Flight plan parsing failed; only flown route is shown


Map Options




Map Legend


Flown Route
Filed Route
Departure Airport
Arrival Airport
Navaid (VOR, NDB)
Fix

Horizontal Profiles

Position Reports

Time Latitude Longitude Heading Altitude Ground
Speed
27-Oct-19 18:59 36.079947 -115.135749 41 2195ft 0kts
27-Oct-19 18:59 36.079947 -115.135749 41 2195ft 0kts
27-Oct-19 19:00 36.079947 -115.135749 41 2195ft 0kts
27-Oct-19 19:02 36.079947 -115.135749 41 2195ft 0kts
27-Oct-19 19:02 36.079947 -115.135749 41 2195ft 0kts
27-Oct-19 19:03 36.079947 -115.135749 41 2195ft 0kts
27-Oct-19 19:05 36.079947 -115.135749 41 2195ft 0kts
27-Oct-19 19:05 36.079947 -115.135749 41 2195ft 0kts
27-Oct-19 19:06 36.079947 -115.135749 41 2195ft 0kts
27-Oct-19 19:07 36.079947 -115.135749 41 2195ft 0kts
27-Oct-19 19:08 36.079947 -115.135749 41 2195ft 0kts
27-Oct-19 19:09 36.079947 -115.135749 41 2195ft 0kts
27-Oct-19 19:10 36.079947 -115.135749 41 2195ft 0kts
27-Oct-19 19:11 36.079947 -115.135749 41 2195ft 0kts
27-Oct-19 19:12 36.079947 -115.135749 41 2195ft 0kts
27-Oct-19 19:13 36.079947 -115.135749 41 2195ft 0kts
27-Oct-19 19:14 36.079947 -115.135749 41 2195ft 0kts
27-Oct-19 19:15 36.079947 -115.135749 41 2195ft 0kts
27-Oct-19 19:16 36.079947 -115.135749 41 2195ft 0kts
27-Oct-19 19:17 36.079947 -115.135749 41 2195ft 0kts
27-Oct-19 19:18 36.079947 -115.135749 41 2195ft 0kts
27-Oct-19 19:19 36.079947 -115.135749 41 2195ft 0kts
27-Oct-19 19:20 36.079947 -115.135749 41 2195ft 0kts
27-Oct-19 19:21 36.079750 -115.135978 43 2195ft 2kts
27-Oct-19 19:22 36.079419 -115.136518 132 2195ft 2kts
27-Oct-19 19:23 36.079693 -115.136829 137 2195ft 0kts
27-Oct-19 19:24 36.079693 -115.136828 137 2195ft 0kts
27-Oct-19 19:25 36.079692 -115.136828 137 2195ft 0kts
27-Oct-19 19:26 36.079439 -115.136541 136 2195ft 10kts
27-Oct-19 19:27 36.078279 -115.137295 264 2195ft 11kts
27-Oct-19 19:28 36.077548 -115.142286 269 2195ft 21kts
27-Oct-19 19:29 36.077992 -115.150202 274 2195ft 25kts
27-Oct-19 19:30 36.078036 -115.158674 269 2195ft 23kts
27-Oct-19 19:31 36.076045 -115.164254 205 2195ft 17kts
27-Oct-19 19:32 36.073912 -115.166147 285 2195ft 0kts
27-Oct-19 19:33 36.074593 -115.167311 21 2195ft 6kts
27-Oct-19 19:34 36.097701 -115.153929 22 2432ft 179kts
27-Oct-19 19:35 36.143376 -115.118476 62 4837ft 243kts
27-Oct-19 19:36 36.147929 -115.028374 84 7321ft 274kts
27-Oct-19 19:37 36.153035 -114.931819 82 10295ft 294kts
27-Oct-19 19:38 36.161317 -114.818343 76 11963ft 350kts
27-Oct-19 19:39 36.179184 -114.697033 90 14439ft 378kts
27-Oct-19 19:40 36.110822 -114.593131 141 16710ft 419kts
27-Oct-19 19:41 36.020260 -114.498250 118 18775ft 435kts
27-Oct-19 19:42 35.991681 -114.353897 94 20604ft 444kts
27-Oct-19 19:43 35.968775 -114.200862 93 22311ft 461kts
27-Oct-19 19:44 35.945334 -114.042756 93 23799ft 477kts
27-Oct-19 19:45 35.919083 -113.880313 102 25233ft 494kts
27-Oct-19 19:46 35.871744 -113.718955 105 26538ft 503kts
27-Oct-19 19:47 35.823558 -113.555770 106 27005ft 506kts
27-Oct-19 19:48 35.774345 -113.388586 106 27017ft 533kts
27-Oct-19 19:49 35.723818 -113.217411 106 27014ft 532kts
27-Oct-19 19:50 35.673275 -113.046744 107 27020ft 531kts
27-Oct-19 19:51 35.622538 -112.876199 107 27032ft 529kts
27-Oct-19 19:52 35.571882 -112.706844 107 27036ft 528kts
27-Oct-19 19:53 35.520640 -112.538409 113 27034ft 529kts
27-Oct-19 19:54 35.406814 -112.437849 173 27058ft 513kts
27-Oct-19 19:55 35.266572 -112.405887 174 27051ft 513kts
27-Oct-19 19:56 35.125739 -112.374789 174 27043ft 513kts
27-Oct-19 19:57 34.985777 -112.344422 175 27028ft 501kts
27-Oct-19 19:58 34.854481 -112.316156 175 25812ft 469kts
27-Oct-19 19:59 34.728174 -112.289347 174 22354ft 447kts
27-Oct-19 20:00 34.612481 -112.264816 175 20516ft 398kts
27-Oct-19 20:01 34.505426 -112.242389 175 19117ft 386kts
27-Oct-19 20:02 34.398405 -112.217822 172 18070ft 388kts
27-Oct-19 20:03 34.295026 -112.191008 172 16474ft 373kts
27-Oct-19 20:04 34.195558 -112.165271 172 15723ft 361kts
27-Oct-19 20:05 34.098551 -112.140241 171 14368ft 349kts
27-Oct-19 20:06 34.009494 -112.105895 164 13448ft 325kts
27-Oct-19 20:07 33.925004 -112.071517 164 12098ft 315kts
27-Oct-19 20:08 33.843715 -112.038566 163 10912ft 303kts
27-Oct-19 20:09 33.764883 -112.006618 162 9565ft 294kts
27-Oct-19 20:10 33.688797 -111.975863 162 8599ft 284kts
27-Oct-19 20:11 33.615961 -111.946431 162 7941ft 263kts
27-Oct-19 20:12 33.547438 -111.918705 160 7456ft 263kts
27-Oct-19 20:13 33.526567 -111.847928 90 7144ft 239kts
27-Oct-19 20:14 33.526740 -111.765588 99 5417ft 259kts
27-Oct-19 20:15 33.478146 -111.740674 222 5131ft 218kts
27-Oct-19 20:16 33.445587 -111.801841 245 4435ft 215kts
27-Oct-19 20:17 33.440708 -111.872469 269 3216ft 204kts
27-Oct-19 20:18 33.440801 -111.934537 270 2086ft 163kts
27-Oct-19 20:19 33.440876 -111.987023 270 1266ft 155kts
27-Oct-19 20:20 33.439874 -112.011104 165 1149ft 6kts
27-Oct-19 20:21 33.439725 -112.008982 87 1149ft 8kts
27-Oct-19 20:22 33.439014 -112.003811 98 1149ft 19kts
27-Oct-19 20:23 33.437384 -112.000369 100 1149ft 5kts
27-Oct-19 20:24 33.437379 -111.999907 90 1149ft 0kts
27-Oct-19 20:25 33.437379 -111.999907 90 1149ft 0kts
27-Oct-19 20:26 33.437379 -111.999907 90 1149ft 0kts

Navigation Log

Ident Type
Flight plan parsing failed, navigation log unavailable